Terminal Aerodrome Forecast
Issued by NWS Bismarck, ND

Home | Current Version | Previous Version | Graphics & Text | Print | Product List | Glossary On
Versions: 1 2 3 4 5 6 7 8 9 10 11 12 13 14 15 16 17 18 19 20 21
000
FTUS43 KBIS 262327
TAFBIS
TAF
KBIS 262327Z 2700/2724 14015G21KT P6SM SCT250
     FM270200 12007KT P6SM VCTS SCT050 SCT080CB
     FM270500 12008KT P6SM SCT100 SCT250
     FM271600 14014G24KT P6SM SCT080
     FM272000 16023G30KT P6SM SKC=

USA.gov is the U.S. government's official web portal to all federal, state and local government web resources and services.